sensor_id;sensor_type;location;lat;lon;timestamp;temperature;humidity
19496;DHT22;9888;48.606;9.630;2022-10-20T00:01:56;11.40;99.90
19496;DHT22;9888;48.606;9.630;2022-10-20T00:04:24;11.40;99.90
19496;DHT22;9888;48.606;9.630;2022-10-20T00:06:50;11.40;99.90
19496;DHT22;9888;48.606;9.630;2022-10-20T00:09:17;11.40;99.90
19496;DHT22;9888;48.606;9.630;2022-10-20T00:11:45;11.40;99.90
19496;DHT22;9888;48.606;9.630;2022-10-20T00:14:12;11.40;99.90
19496;DHT22;9888;48.606;9.630;2022-10-20T00:16:41;11.50;99.90
19496;DHT22;9888;48.606;9.630;2022-10-20T00:19:08;11.50;99.90
19496;DHT22;9888;48.606;9.630;2022-10-20T00:21:35;11.50;99.90
19496;DHT22;9888;48.606;9.630;2022-10-20T00:24:03;11.50;99.90
19496;DHT22;9888;48.606;9.630;2022-10-20T00:26:31;11.50;99.90
19496;DHT22;9888;48.606;9.630;2022-10-20T00:29:02;11.50;99.90
19496;DHT22;9888;48.606;9.630;2022-10-20T00:31:31;11.50;99.90
19496;DHT22;9888;48.606;9.630;2022-10-20T00:33:59;11.50;99.90
19496;DHT22;9888;48.606;9.630;2022-10-20T00:36:27;11.40;99.90
19496;DHT22;9888;48.606;9.630;2022-10-20T00:39:01;11.40;99.90
19496;DHT22;9888;48.606;9.630;2022-10-20T00:41:31;11.40;99.90
19496;DHT22;9888;48.606;9.630;2022-10-20T00:44:45;11.40;99.90
19496;DHT22;9888;48.606;9.630;2022-10-20T00:47:03;11.40;99.90
19496;DHT22;9888;48.606;9.630;2022-10-20T00:49:30;11.40;99.90
19496;DHT22;9888;48.606;9.630;2022-10-20T00:51:58;11.40;99.90
19496;DHT22;9888;48.606;9.630;2022-10-20T00:54:27;11.40;99.90
19496;DHT22;9888;48.606;9.630;2022-10-20T00:56:55;11.40;99.90
19496;DHT22;9888;48.606;9.630;2022-10-20T00:59:27;11.40;99.90
19496;DHT22;9888;48.606;9.630;2022-10-20T01:01:56;11.40;99.90
19496;DHT22;9888;48.606;9.630;2022-10-20T01:04:23;11.30;99.90
19496;DHT22;9888;48.606;9.630;2022-10-20T01:06:51;11.40;99.90
19496;DHT22;9888;48.606;9.630;2022-10-20T01:09:20;11.30;99.90
19496;DHT22;9888;48.606;9.630;2022-10-20T01:12:14;11.30;99.90
19496;DHT22;9888;48.606;9.630;2022-10-20T01:18:01;11.20;99.90
19496;DHT22;9888;48.606;9.630;2022-10-20T01:20:51;11.20;99.90
19496;DHT22;9888;48.606;9.630;2022-10-20T01:26:27;11.30;99.90
19496;DHT22;9888;48.606;9.630;2022-10-20T01:32:19;11.20;99.90
19496;DHT22;9888;48.606;9.630;2022-10-20T01:35:06;11.20;99.90
19496;DHT22;9888;48.606;9.630;2022-10-20T01:37:51;11.30;99.90
19496;DHT22;9888;48.606;9.630;2022-10-20T01:40:32;11.30;99.90
19496;DHT22;9888;48.606;9.630;2022-10-20T01:43:05;11.20;99.90
19496;DHT22;9888;48.606;9.630;2022-10-20T01:45:37;11.20;99.90
19496;DHT22;9888;48.606;9.630;2022-10-20T01:48:05;11.30;99.90
19496;DHT22;9888;48.606;9.630;2022-10-20T01:50:35;11.30;99.90
19496;DHT22;9888;48.606;9.630;2022-10-20T01:53:04;11.30;99.90
19496;DHT22;9888;48.606;9.630;2022-10-20T01:55:31;11.20;99.90
19496;DHT22;9888;48.606;9.630;2022-10-20T01:58:14;11.20;99.90
19496;DHT22;9888;48.606;9.630;2022-10-20T02:00:42;11.20;99.90
19496;DHT22;9888;48.606;9.630;2022-10-20T02:08:33;11.10;99.90
19496;DHT22;9888;48.606;9.630;2022-10-20T02:11:05;11.10;99.90
19496;DHT22;9888;48.606;9.630;2022-10-20T02:13:36;11.10;99.90
19496;DHT22;9888;48.606;9.630;2022-10-20T02:16:14;11.10;99.90
19496;DHT22;9888;48.606;9.630;2022-10-20T02:18:45;11.00;99.90
19496;DHT22;9888;48.606;9.630;2022-10-20T02:21:16;11.00;99.90
19496;DHT22;9888;48.606;9.630;2022-10-20T02:23:45;11.00;99.90
19496;DHT22;9888;48.606;9.630;2022-10-20T02:26:16;11.00;99.90
19496;DHT22;9888;48.606;9.630;2022-10-20T02:28:47;11.00;99.90
19496;DHT22;9888;48.606;9.630;2022-10-20T02:31:16;11.00;99.90
19496;DHT22;9888;48.606;9.630;2022-10-20T02:33:45;10.90;99.90
19496;DHT22;9888;48.606;9.630;2022-10-20T02:36:16;10.90;99.90
19496;DHT22;9888;48.606;9.630;2022-10-20T02:38:44;10.90;99.90
19496;DHT22;9888;48.606;9.630;2022-10-20T02:41:10;10.90;99.90
19496;DHT22;9888;48.606;9.630;2022-10-20T02:43:38;10.90;99.90
19496;DHT22;9888;48.606;9.630;2022-10-20T02:46:06;10.90;99.90
19496;DHT22;9888;48.606;9.630;2022-10-20T02:48:33;10.90;99.90
19496;DHT22;9888;48.606;9.630;2022-10-20T02:51:03;10.80;99.90
19496;DHT22;9888;48.606;9.630;2022-10-20T02:53:31;10.80;99.90
19496;DHT22;9888;48.606;9.630;2022-10-20T02:55:58;10.80;99.90
19496;DHT22;9888;48.606;9.630;2022-10-20T02:58:27;10.80;99.90
19496;DHT22;9888;48.606;9.630;2022-10-20T03:00:55;10.70;99.90
19496;DHT22;9888;48.606;9.630;2022-10-20T03:03:22;10.70;99.90
19496;DHT22;9888;48.606;9.630;2022-10-20T03:05:49;10.70;99.90
19496;DHT22;9888;48.606;9.630;2022-10-20T03:08:16;10.70;99.90
19496;DHT22;9888;48.606;9.630;2022-10-20T03:10:43;10.70;99.90
19496;DHT22;9888;48.606;9.630;2022-10-20T03:13:12;10.70;99.90
19496;DHT22;9888;48.606;9.630;2022-10-20T03:15:42;10.70;99.90
19496;DHT22;9888;48.606;9.630;2022-10-20T03:18:13;10.70;99.90
19496;DHT22;9888;48.606;9.630;2022-10-20T03:20:40;10.70;99.90
19496;DHT22;9888;48.606;9.630;2022-10-20T03:26:30;10.70;99.90
19496;DHT22;9888;48.606;9.630;2022-10-20T03:28:57;10.60;99.90
19496;DHT22;9888;48.606;9.630;2022-10-20T03:31:25;10.60;99.90
19496;DHT22;9888;48.606;9.630;2022-10-20T03:33:53;10.60;99.90
19496;DHT22;9888;48.606;9.630;2022-10-20T03:36:19;10.60;99.90
19496;DHT22;9888;48.606;9.630;2022-10-20T03:38:47;10.60;99.90
19496;DHT22;9888;48.606;9.630;2022-10-20T03:41:14;10.50;99.90
19496;DHT22;9888;48.606;9.630;2022-10-20T03:43:42;10.50;99.90
19496;DHT22;9888;48.606;9.630;2022-10-20T03:46:11;10.50;99.90
19496;DHT22;9888;48.606;9.630;2022-10-20T03:48:39;10.50;99.90
19496;DHT22;9888;48.606;9.630;2022-10-20T03:51:06;10.50;99.90
19496;DHT22;9888;48.606;9.630;2022-10-20T03:53:34;10.40;99.90
19496;DHT22;9888;48.606;9.630;2022-10-20T03:56:09;10.40;99.90
19496;DHT22;9888;48.606;9.630;2022-10-20T03:58:36;10.40;99.90
19496;DHT22;9888;48.606;9.630;2022-10-20T04:01:04;10.30;99.90
19496;DHT22;9888;48.606;9.630;2022-10-20T04:03:32;10.30;99.90
19496;DHT22;9888;48.606;9.630;2022-10-20T04:05:59;10.30;99.90
19496;DHT22;9888;48.606;9.630;2022-10-20T04:08:28;10.30;99.90
19496;DHT22;9888;48.606;9.630;2022-10-20T04:10:56;10.30;99.90
19496;DHT22;9888;48.606;9.630;2022-10-20T04:13:23;10.30;99.90
19496;DHT22;9888;48.606;9.630;2022-10-20T04:15:50;10.30;99.90
19496;DHT22;9888;48.606;9.630;2022-10-20T04:18:17;10.30;99.90
19496;DHT22;9888;48.606;9.630;2022-10-20T04:20:47;10.30;99.90
19496;DHT22;9888;48.606;9.630;2022-10-20T04:23:14;10.30;99.90
19496;DHT22;9888;48.606;9.630;2022-10-20T04:26:15;10.30;99.90
19496;DHT22;9888;48.606;9.630;2022-10-20T04:28:42;10.30;99.90
19496;DHT22;9888;48.606;9.630;2022-10-20T04:31:10;10.30;99.90
19496;DHT22;9888;48.606;9.630;2022-10-20T04:33:37;10.20;99.90
19496;DHT22;9888;48.606;9.630;2022-10-20T04:36:07;10.20;99.90
19496;DHT22;9888;48.606;9.630;2022-10-20T04:38:36;10.20;99.90
19496;DHT22;9888;48.606;9.630;2022-10-20T04:41:04;10.20;99.90
19496;DHT22;9888;48.606;9.630;2022-10-20T04:43:33;10.20;99.90
19496;DHT22;9888;48.606;9.630;2022-10-20T04:46:04;10.20;99.90
19496;DHT22;9888;48.606;9.630;2022-10-20T04:48:32;10.20;99.90
19496;DHT22;9888;48.606;9.630;2022-10-20T04:51:06;10.20;99.90
19496;DHT22;9888;48.606;9.630;2022-10-20T04:53:35;10.20;99.90
19496;DHT22;9888;48.606;9.630;2022-10-20T04:56:03;10.20;99.90
19496;DHT22;9888;48.606;9.630;2022-10-20T04:58:30;10.20;99.90
19496;DHT22;9888;48.606;9.630;2022-10-20T05:01:17;10.20;99.90
19496;DHT22;9888;48.606;9.630;2022-10-20T05:03:48;10.20;99.90
19496;DHT22;9888;48.606;9.630;2022-10-20T05:06:24;10.10;99.90
19496;DHT22;9888;48.606;9.630;2022-10-20T05:08:54;10.20;99.90
19496;DHT22;9888;48.606;9.630;2022-10-20T05:11:22;10.20;99.90
19496;DHT22;9888;48.606;9.630;2022-10-20T05:13:49;10.20;99.90
19496;DHT22;9888;48.606;9.630;2022-10-20T05:16:17;10.20;99.90
19496;DHT22;9888;48.606;9.630;2022-10-20T05:18:45;10.20;99.90
19496;DHT22;9888;48.606;9.630;2022-10-20T05:21:15;10.30;99.90
19496;DHT22;9888;48.606;9.630;2022-10-20T05:23:43;10.30;99.90
19496;DHT22;9888;48.606;9.630;2022-10-20T05:26:13;10.30;99.90
19496;DHT22;9888;48.606;9.630;2022-10-20T05:28:46;10.30;99.90
19496;DHT22;9888;48.606;9.630;2022-10-20T05:31:15;10.30;99.90
19496;DHT22;9888;48.606;9.630;2022-10-20T05:33:48;10.30;99.90
19496;DHT22;9888;48.606;9.630;2022-10-20T05:36:18;10.30;99.90
19496;DHT22;9888;48.606;9.630;2022-10-20T05:38:46;10.30;99.90
19496;DHT22;9888;48.606;9.630;2022-10-20T05:41:16;10.30;99.90
19496;DHT22;9888;48.606;9.630;2022-10-20T05:43:52;10.30;99.90
19496;DHT22;9888;48.606;9.630;2022-10-20T05:46:20;10.30;99.90
19496;DHT22;9888;48.606;9.630;2022-10-20T05:48:47;10.30;99.90
19496;DHT22;9888;48.606;9.630;2022-10-20T05:51:18;10.30;99.90
19496;DHT22;9888;48.606;9.630;2022-10-20T05:53:46;10.30;99.90
19496;DHT22;9888;48.606;9.630;2022-10-20T05:56:17;10.30;99.90
19496;DHT22;9888;48.606;9.630;2022-10-20T05:58:46;10.30;99.90
19496;DHT22;9888;48.606;9.630;2022-10-20T06:01:18;10.30;99.90
19496;DHT22;9888;48.606;9.630;2022-10-20T06:03:50;10.30;99.90
19496;DHT22;9888;48.606;9.630;2022-10-20T06:06:19;10.30;99.90
19496;DHT22;9888;48.606;9.630;2022-10-20T06:08:48;10.40;99.90
19496;DHT22;9888;48.606;9.630;2022-10-20T06:11:21;10.40;99.90
19496;DHT22;9888;48.606;9.630;2022-10-20T06:13:55;10.40;99.90
19496;DHT22;9888;48.606;9.630;2022-10-20T06:16:24;10.40;99.90
19496;DHT22;9888;48.606;9.630;2022-10-20T06:18:52;10.40;99.90
19496;DHT22;9888;48.606;9.630;2022-10-20T06:21:22;10.50;99.90
19496;DHT22;9888;48.606;9.630;2022-10-20T06:23:51;10.50;99.90
19496;DHT22;9888;48.606;9.630;2022-10-20T06:26:25;10.50;99.90
19496;DHT22;9888;48.606;9.630;2022-10-20T06:28:56;10.50;99.90
19496;DHT22;9888;48.606;9.630;2022-10-20T06:31:26;10.50;99.90
19496;DHT22;9888;48.606;9.630;2022-10-20T06:33:54;10.50;99.90
19496;DHT22;9888;48.606;9.630;2022-10-20T06:36:23;10.50;99.90
19496;DHT22;9888;48.606;9.630;2022-10-20T06:38:55;10.50;99.90
19496;DHT22;9888;48.606;9.630;2022-10-20T06:41:25;10.50;99.90
19496;DHT22;9888;48.606;9.630;2022-10-20T06:43:53;10.60;99.90
19496;DHT22;9888;48.606;9.630;2022-10-20T06:46:33;10.60;99.90
19496;DHT22;9888;48.606;9.630;2022-10-20T06:49:05;10.60;99.90
19496;DHT22;9888;48.606;9.630;2022-10-20T06:51:34;10.60;99.90
19496;DHT22;9888;48.606;9.630;2022-10-20T06:54:03;10.70;99.90
19496;DHT22;9888;48.606;9.630;2022-10-20T06:56:33;10.70;99.90
19496;DHT22;9888;48.606;9.630;2022-10-20T06:59:00;10.70;99.90
19496;DHT22;9888;48.606;9.630;2022-10-20T07:01:32;10.70;99.90
19496;DHT22;9888;48.606;9.630;2022-10-20T07:04:03;10.80;99.90
19496;DHT22;9888;48.606;9.630;2022-10-20T07:06:32;10.90;99.90
19496;DHT22;9888;48.606;9.630;2022-10-20T07:09:00;10.90;99.90
19496;DHT22;9888;48.606;9.630;2022-10-20T07:11:53;10.90;99.90
19496;DHT22;9888;48.606;9.630;2022-10-20T07:14:22;11.00;99.90
19496;DHT22;9888;48.606;9.630;2022-10-20T07:16:51;11.00;99.90
19496;DHT22;9888;48.606;9.630;2022-10-20T07:22:29;11.10;99.90
19496;DHT22;9888;48.606;9.630;2022-10-20T07:25:00;11.10;99.90
19496;DHT22;9888;48.606;9.630;2022-10-20T07:27:37;11.20;99.90
19496;DHT22;9888;48.606;9.630;2022-10-20T07:30:15;11.30;99.90
19496;DHT22;9888;48.606;9.630;2022-10-20T07:32:44;11.30;99.90
19496;DHT22;9888;48.606;9.630;2022-10-20T07:35:11;11.40;99.90
19496;DHT22;9888;48.606;9.630;2022-10-20T07:37:39;11.50;99.90
19496;DHT22;9888;48.606;9.630;2022-10-20T07:40:07;11.50;99.90
19496;DHT22;9888;48.606;9.630;2022-10-20T07:42:34;11.50;99.90
19496;DHT22;9888;48.606;9.630;2022-10-20T07:45:04;11.50;99.90
19496;DHT22;9888;48.606;9.630;2022-10-20T07:48:08;11.50;99.90
19496;DHT22;9888;48.606;9.630;2022-10-20T07:50:41;11.50;99.90
19496;DHT22;9888;48.606;9.630;2022-10-20T07:53:09;11.70;99.90
19496;DHT22;9888;48.606;9.630;2022-10-20T07:55:36;11.80;99.90
19496;DHT22;9888;48.606;9.630;2022-10-20T07:58:04;12.00;99.90
19496;DHT22;9888;48.606;9.630;2022-10-20T08:00:33;12.10;99.90
19496;DHT22;9888;48.606;9.630;2022-10-20T08:03:00;12.30;99.90
19496;DHT22;9888;48.606;9.630;2022-10-20T08:05:28;12.40;99.90
19496;DHT22;9888;48.606;9.630;2022-10-20T08:07:55;12.50;99.90
19496;DHT22;9888;48.606;9.630;2022-10-20T08:10:23;12.60;99.90
19496;DHT22;9888;48.606;9.630;2022-10-20T08:12:50;12.70;99.90
19496;DHT22;9888;48.606;9.630;2022-10-20T08:15:17;12.90;99.90
19496;DHT22;9888;48.606;9.630;2022-10-20T08:17:44;12.90;99.90
19496;DHT22;9888;48.606;9.630;2022-10-20T08:20:11;13.10;99.90
19496;DHT22;9888;48.606;9.630;2022-10-20T08:22:38;13.20;99.90
19496;DHT22;9888;48.606;9.630;2022-10-20T08:25:05;13.50;99.90
19496;DHT22;9888;48.606;9.630;2022-10-20T08:27:33;13.60;99.90
19496;DHT22;9888;48.606;9.630;2022-10-20T08:30:00;13.60;99.90
19496;DHT22;9888;48.606;9.630;2022-10-20T08:32:29;13.50;99.90
19496;DHT22;9888;48.606;9.630;2022-10-20T08:34:57;13.40;99.90
19496;DHT22;9888;48.606;9.630;2022-10-20T08:37:24;13.50;99.90
19496;DHT22;9888;48.606;9.630;2022-10-20T08:39:51;13.40;99.90
19496;DHT22;9888;48.606;9.630;2022-10-20T08:42:19;13.40;99.90
19496;DHT22;9888;48.606;9.630;2022-10-20T08:44:47;13.40;99.90
19496;DHT22;9888;48.606;9.630;2022-10-20T08:47:29;13.60;99.90
19496;DHT22;9888;48.606;9.630;2022-10-20T08:49:59;13.80;99.90
19496;DHT22;9888;48.606;9.630;2022-10-20T08:52:31;14.00;99.90
19496;DHT22;9888;48.606;9.630;2022-10-20T08:54:58;14.10;99.90
19496;DHT22;9888;48.606;9.630;2022-10-20T08:57:30;14.40;99.90
19496;DHT22;9888;48.606;9.630;2022-10-20T09:00:10;14.50;99.90
19496;DHT22;9888;48.606;9.630;2022-10-20T09:02:40;14.70;99.90
19496;DHT22;9888;48.606;9.630;2022-10-20T09:05:08;14.90;99.90
19496;DHT22;9888;48.606;9.630;2022-10-20T09:07:38;15.20;99.90
19496;DHT22;9888;48.606;9.630;2022-10-20T09:10:29;15.80;99.90
19496;DHT22;9888;48.606;9.630;2022-10-20T09:12:53;16.80;99.90
19496;DHT22;9888;48.606;9.630;2022-10-20T09:15:21;18.60;99.90
19496;DHT22;9888;48.606;9.630;2022-10-20T09:18:02;19.60;99.90
19496;DHT22;9888;48.606;9.630;2022-10-20T09:20:36;20.50;99.90
19496;DHT22;9888;48.606;9.630;2022-10-20T09:23:04;21.80;99.90
19496;DHT22;9888;48.606;9.630;2022-10-20T09:25:32;22.60;99.90
19496;DHT22;9888;48.606;9.630;2022-10-20T09:28:03;23.50;99.90
19496;DHT22;9888;48.606;9.630;2022-10-20T09:30:32;23.50;99.90
19496;DHT22;9888;48.606;9.630;2022-10-20T09:33:08;23.30;99.90
19496;DHT22;9888;48.606;9.630;2022-10-20T09:35:48;23.80;99.90
19496;DHT22;9888;48.606;9.630;2022-10-20T09:38:33;24.30;99.90
19496;DHT22;9888;48.606;9.630;2022-10-20T09:43:46;23.50;99.90
19496;DHT22;9888;48.606;9.630;2022-10-20T09:46:18;22.40;99.90
19496;DHT22;9888;48.606;9.630;2022-10-20T09:48:48;22.20;99.90
19496;DHT22;9888;48.606;9.630;2022-10-20T09:51:24;22.20;99.90
19496;DHT22;9888;48.606;9.630;2022-10-20T09:54:04;23.00;99.90
19496;DHT22;9888;48.606;9.630;2022-10-20T09:56:37;22.90;99.90
19496;DHT22;9888;48.606;9.630;2022-10-20T09:59:21;22.40;99.90
19496;DHT22;9888;48.606;9.630;2022-10-20T10:04:46;21.20;99.90
19496;DHT22;9888;48.606;9.630;2022-10-20T10:10:21;19.90;99.90
19496;DHT22;9888;48.606;9.630;2022-10-20T10:12:58;20.60;99.90
19496;DHT22;9888;48.606;9.630;2022-10-20T10:15:33;21.20;99.90
19496;DHT22;9888;48.606;9.630;2022-10-20T10:18:13;22.20;99.90
19496;DHT22;9888;48.606;9.630;2022-10-20T10:21:09;23.00;99.90
19496;DHT22;9888;48.606;9.630;2022-10-20T10:24:01;23.10;99.90
19496;DHT22;9888;48.606;9.630;2022-10-20T10:29:22;21.30;99.90
19496;DHT22;9888;48.606;9.630;2022-10-20T10:32:00;20.40;99.90
19496;DHT22;9888;48.606;9.630;2022-10-20T10:37:15;19.50;99.90
19496;DHT22;9888;48.606;9.630;2022-10-20T10:39:43;19.30;99.90
19496;DHT22;9888;48.606;9.630;2022-10-20T10:48:09;19.10;99.90
19496;DHT22;9888;48.606;9.630;2022-10-20T10:56:43;20.20;99.90
19496;DHT22;9888;48.606;9.630;2022-10-20T10:59:21;20.20;99.90
19496;DHT22;9888;48.606;9.630;2022-10-20T11:04:57;19.90;99.90
19496;DHT22;9888;48.606;9.630;2022-10-20T11:13:44;18.80;99.90
19496;DHT22;9888;48.606;9.630;2022-10-20T11:16:20;18.60;99.90
19496;DHT22;9888;48.606;9.630;2022-10-20T11:27:35;18.30;99.90
19496;DHT22;9888;48.606;9.630;2022-10-20T11:30:16;18.00;99.90
19496;DHT22;9888;48.606;9.630;2022-10-20T11:32:53;17.70;99.90
19496;DHT22;9888;48.606;9.630;2022-10-20T11:35:53;17.50;99.90
19496;DHT22;9888;48.606;9.630;2022-10-20T11:38:41;17.30;99.90
19496;DHT22;9888;48.606;9.630;2022-10-20T11:41:26;17.30;99.90
19496;DHT22;9888;48.606;9.630;2022-10-20T11:44:20;17.50;99.90
19496;DHT22;9888;48.606;9.630;2022-10-20T11:46:56;17.70;99.90
19496;DHT22;9888;48.606;9.630;2022-10-20T11:49:26;17.90;99.90
19496;DHT22;9888;48.606;9.630;2022-10-20T11:55:20;18.30;99.90
19496;DHT22;9888;48.606;9.630;2022-10-20T12:06:49;19.80;99.90
19496;DHT22;9888;48.606;9.630;2022-10-20T12:09:33;20.00;99.90
19496;DHT22;9888;48.606;9.630;2022-10-20T12:12:14;19.90;99.90
19496;DHT22;9888;48.606;9.630;2022-10-20T12:14:54;19.70;99.90
19496;DHT22;9888;48.606;9.630;2022-10-20T12:17:36;19.60;99.90
19496;DHT22;9888;48.606;9.630;2022-10-20T12:22:52;19.20;99.90
19496;DHT22;9888;48.606;9.630;2022-10-20T12:31:10;18.50;99.90
19496;DHT22;9888;48.606;9.630;2022-10-20T12:38:50;17.90;99.90
19496;DHT22;9888;48.606;9.630;2022-10-20T12:41:28;17.60;99.90
19496;DHT22;9888;48.606;9.630;2022-10-20T12:44:13;17.40;99.90
19496;DHT22;9888;48.606;9.630;2022-10-20T12:46:56;17.30;99.90
19496;DHT22;9888;48.606;9.630;2022-10-20T12:49:35;17.20;99.90
19496;DHT22;9888;48.606;9.630;2022-10-20T12:52:06;17.00;99.90
19496;DHT22;9888;48.606;9.630;2022-10-20T12:54:40;17.00;99.90
19496;DHT22;9888;48.606;9.630;2022-10-20T13:11:51;17.20;99.90
19496;DHT22;9888;48.606;9.630;2022-10-20T13:14:27;17.10;99.90
19496;DHT22;9888;48.606;9.630;2022-10-20T13:17:10;17.10;99.90
19496;DHT22;9888;48.606;9.630;2022-10-20T13:19:46;17.10;99.90
19496;DHT22;9888;48.606;9.630;2022-10-20T13:22:44;17.10;99.90
19496;DHT22;9888;48.606;9.630;2022-10-20T13:27:48;17.30;99.90
19496;DHT22;9888;48.606;9.630;2022-10-20T13:30:21;17.30;99.90
19496;DHT22;9888;48.606;9.630;2022-10-20T13:33:07;17.30;99.90
19496;DHT22;9888;48.606;9.630;2022-10-20T13:41:14;17.40;99.90
19496;DHT22;9888;48.606;9.630;2022-10-20T13:43:56;17.50;99.90
19496;DHT22;9888;48.606;9.630;2022-10-20T13:50:00;17.70;99.90
19496;DHT22;9888;48.606;9.630;2022-10-20T13:52:34;17.70;99.90
19496;DHT22;9888;48.606;9.630;2022-10-20T13:55:06;17.80;99.90
19496;DHT22;9888;48.606;9.630;2022-10-20T13:57:56;17.80;99.90
19496;DHT22;9888;48.606;9.630;2022-10-20T14:00:28;17.80;99.90
19496;DHT22;9888;48.606;9.630;2022-10-20T14:03:02;17.80;99.90
19496;DHT22;9888;48.606;9.630;2022-10-20T14:05:36;17.90;99.90
19496;DHT22;9888;48.606;9.630;2022-10-20T14:08:14;17.90;99.90
19496;DHT22;9888;48.606;9.630;2022-10-20T14:13:19;17.60;99.90
19496;DHT22;9888;48.606;9.630;2022-10-20T14:15:50;17.40;99.90
19496;DHT22;9888;48.606;9.630;2022-10-20T14:18:32;17.00;99.90
19496;DHT22;9888;48.606;9.630;2022-10-20T14:21:15;17.00;99.90
19496;DHT22;9888;48.606;9.630;2022-10-20T14:23:43;17.00;99.90
19496;DHT22;9888;48.606;9.630;2022-10-20T14:26:17;17.10;99.90
19496;DHT22;9888;48.606;9.630;2022-10-20T14:28:50;17.00;99.90
19496;DHT22;9888;48.606;9.630;2022-10-20T14:31:23;16.90;99.90
19496;DHT22;9888;48.606;9.630;2022-10-20T14:33:52;16.80;99.90
19496;DHT22;9888;48.606;9.630;2022-10-20T14:36:25;16.60;99.90
19496;DHT22;9888;48.606;9.630;2022-10-20T14:38:59;16.50;99.90
19496;DHT22;9888;48.606;9.630;2022-10-20T14:41:35;16.40;99.90
19496;DHT22;9888;48.606;9.630;2022-10-20T14:44:05;16.30;99.90
19496;DHT22;9888;48.606;9.630;2022-10-20T14:46:38;16.30;99.90
19496;DHT22;9888;48.606;9.630;2022-10-20T14:52:32;16.10;99.90
19496;DHT22;9888;48.606;9.630;2022-10-20T14:55:30;16.00;99.90
19496;DHT22;9888;48.606;9.630;2022-10-20T14:57:59;15.90;99.90
19496;DHT22;9888;48.606;9.630;2022-10-20T15:00:34;15.80;99.90
19496;DHT22;9888;48.606;9.630;2022-10-20T15:03:04;15.70;99.90
19496;DHT22;9888;48.606;9.630;2022-10-20T15:05:40;15.80;99.90
19496;DHT22;9888;48.606;9.630;2022-10-20T15:08:25;15.70;99.90
19496;DHT22;9888;48.606;9.630;2022-10-20T15:10:55;15.70;99.90
19496;DHT22;9888;48.606;9.630;2022-10-20T15:13:39;15.60;99.90
19496;DHT22;9888;48.606;9.630;2022-10-20T15:16:07;15.50;99.90
19496;DHT22;9888;48.606;9.630;2022-10-20T15:19:29;15.40;99.90
19496;DHT22;9888;48.606;9.630;2022-10-20T15:22:11;15.30;99.90
19496;DHT22;9888;48.606;9.630;2022-10-20T15:24:38;15.20;99.90
19496;DHT22;9888;48.606;9.630;2022-10-20T15:27:13;15.10;99.90
19496;DHT22;9888;48.606;9.630;2022-10-20T15:29:47;15.10;99.90
19496;DHT22;9888;48.606;9.630;2022-10-20T15:32:17;15.10;99.90
19496;DHT22;9888;48.606;9.630;2022-10-20T15:34:50;15.10;99.90
19496;DHT22;9888;48.606;9.630;2022-10-20T15:37:17;14.90;99.90
19496;DHT22;9888;48.606;9.630;2022-10-20T15:39:45;14.80;99.90
19496;DHT22;9888;48.606;9.630;2022-10-20T15:42:12;14.70;99.90
19496;DHT22;9888;48.606;9.630;2022-10-20T15:44:39;14.70;99.90
19496;DHT22;9888;48.606;9.630;2022-10-20T15:47:07;14.70;99.90
19496;DHT22;9888;48.606;9.630;2022-10-20T15:49:34;14.70;99.90
19496;DHT22;9888;48.606;9.630;2022-10-20T15:52:03;14.60;99.90
19496;DHT22;9888;48.606;9.630;2022-10-20T15:54:30;14.60;99.90
19496;DHT22;9888;48.606;9.630;2022-10-20T15:56:57;14.50;99.90
19496;DHT22;9888;48.606;9.630;2022-10-20T15:59:24;14.40;99.90
19496;DHT22;9888;48.606;9.630;2022-10-20T16:01:51;14.40;99.90
19496;DHT22;9888;48.606;9.630;2022-10-20T16:04:21;14.40;99.90
19496;DHT22;9888;48.606;9.630;2022-10-20T16:06:54;14.40;99.90
19496;DHT22;9888;48.606;9.630;2022-10-20T16:09:23;14.30;99.90
19496;DHT22;9888;48.606;9.630;2022-10-20T16:11:49;14.30;99.90
19496;DHT22;9888;48.606;9.630;2022-10-20T16:14:16;14.20;99.90
19496;DHT22;9888;48.606;9.630;2022-10-20T16:16:43;14.20;99.90
19496;DHT22;9888;48.606;9.630;2022-10-20T16:19:11;14.10;99.90
19496;DHT22;9888;48.606;9.630;2022-10-20T16:21:37;14.00;99.90
19496;DHT22;9888;48.606;9.630;2022-10-20T16:24:07;14.00;99.90
19496;DHT22;9888;48.606;9.630;2022-10-20T16:26:45;14.00;99.90
19496;DHT22;9888;48.606;9.630;2022-10-20T16:29:20;13.90;99.90
19496;DHT22;9888;48.606;9.630;2022-10-20T16:31:48;13.80;99.90
19496;DHT22;9888;48.606;9.630;2022-10-20T16:34:14;13.80;99.90
19496;DHT22;9888;48.606;9.630;2022-10-20T16:36:44;13.80;99.90
19496;DHT22;9888;48.606;9.630;2022-10-20T16:39:11;13.80;99.90
19496;DHT22;9888;48.606;9.630;2022-10-20T16:41:38;13.80;99.90
19496;DHT22;9888;48.606;9.630;2022-10-20T16:44:06;13.80;99.90
19496;DHT22;9888;48.606;9.630;2022-10-20T16:46:33;13.80;99.90
19496;DHT22;9888;48.606;9.630;2022-10-20T16:49:00;13.70;99.90
19496;DHT22;9888;48.606;9.630;2022-10-20T16:51:27;13.70;99.90
19496;DHT22;9888;48.606;9.630;2022-10-20T16:53:55;13.70;99.90
19496;DHT22;9888;48.606;9.630;2022-10-20T16:56:22;13.70;99.90
19496;DHT22;9888;48.606;9.630;2022-10-20T16:58:50;13.70;99.90
19496;DHT22;9888;48.606;9.630;2022-10-20T17:01:19;13.70;99.90
19496;DHT22;9888;48.606;9.630;2022-10-20T17:03:49;13.70;99.90
19496;DHT22;9888;48.606;9.630;2022-10-20T17:06:21;13.60;99.90
19496;DHT22;9888;48.606;9.630;2022-10-20T17:08:49;13.60;99.90
19496;DHT22;9888;48.606;9.630;2022-10-20T17:11:22;13.60;99.90
19496;DHT22;9888;48.606;9.630;2022-10-20T17:13:50;13.60;99.90
19496;DHT22;9888;48.606;9.630;2022-10-20T17:16:19;13.50;99.90
19496;DHT22;9888;48.606;9.630;2022-10-20T17:18:46;13.50;99.90
19496;DHT22;9888;48.606;9.630;2022-10-20T17:21:15;13.50;99.90
19496;DHT22;9888;48.606;9.630;2022-10-20T17:23:43;13.50;99.90
19496;DHT22;9888;48.606;9.630;2022-10-20T17:26:13;13.50;99.90
19496;DHT22;9888;48.606;9.630;2022-10-20T17:28:41;13.50;99.90
19496;DHT22;9888;48.606;9.630;2022-10-20T17:31:17;13.40;99.90
19496;DHT22;9888;48.606;9.630;2022-10-20T17:37:06;13.40;99.90
19496;DHT22;9888;48.606;9.630;2022-10-20T17:39:33;13.30;99.90
19496;DHT22;9888;48.606;9.630;2022-10-20T17:42:02;13.30;99.90
19496;DHT22;9888;48.606;9.630;2022-10-20T17:44:32;13.30;99.90
19496;DHT22;9888;48.606;9.630;2022-10-20T17:47:00;13.30;99.90
19496;DHT22;9888;48.606;9.630;2022-10-20T17:49:29;13.30;99.90
19496;DHT22;9888;48.606;9.630;2022-10-20T17:51:56;13.30;99.90
19496;DHT22;9888;48.606;9.630;2022-10-20T17:54:23;13.30;99.90
19496;DHT22;9888;48.606;9.630;2022-10-20T17:56:52;13.30;99.90
19496;DHT22;9888;48.606;9.630;2022-10-20T17:59:21;13.20;99.90
19496;DHT22;9888;48.606;9.630;2022-10-20T18:01:51;13.20;99.90
19496;DHT22;9888;48.606;9.630;2022-10-20T18:04:18;13.20;99.90
19496;DHT22;9888;48.606;9.630;2022-10-20T18:06:50;13.10;99.90
19496;DHT22;9888;48.606;9.630;2022-10-20T18:09:18;13.20;99.90
19496;DHT22;9888;48.606;9.630;2022-10-20T18:11:48;13.20;99.90
19496;DHT22;9888;48.606;9.630;2022-10-20T18:14:17;13.10;99.90
19496;DHT22;9888;48.606;9.630;2022-10-20T18:16:45;13.20;99.90
19496;DHT22;9888;48.606;9.630;2022-10-20T18:19:16;13.10;99.90
19496;DHT22;9888;48.606;9.630;2022-10-20T18:21:44;13.10;99.90